• Join FlightAware (Why Join?)
  • Login
  • US Flag 
07:03AM EDT


 

Airport Tracker/Info


-or-


 

Live Flight TrackerFlight Track Log ✈ AMF708 ✈ 24-Jul-2013 ✈ KMCO - KOPF

Flight Track Log - Related Links

Times and Time Zones

All times are in EDT time to prevent confusion due to time zone crossing. See the AMF708 flight status page for this flight to view local times or setup timezone preferences in your user account.

Time Position Orientation Groundspeed Altitude Reporting Facility
EDT Latitude Longitude Course Direction KTS MPH feet Rate Location/Type
01:07AM 28.4000 -81.3167 127° Southeast 148 170 1,900  Level Orlando TRACON
01:08AM 28.3667 -81.2667 127° Southeast 164 189 4,000 1,920 Climbing Orlando TRACON
01:09AM 28.3333 -81.2333 139° Southeast 183 211 5,800 1,800 Climbing Orlando TRACON
01:10AM 28.2833 -81.2167 164° South 181 208 7,700 1,680 Climbing Orlando TRACON
01:12AM 28.2333 -81.2000 164° South 187 215 9,400 1,500 Climbing Orlando TRACON
01:13AM 28.1833 -81.1667 150° Southeast 193 222 10,900 1,320 Climbing Orlando TRACON
01:13AM 28.1333 -81.1500 164° South 201 231 12,000 1,200 Climbing Orlando TRACON
01:14AM 28.0833 -81.1333 164° South 204 235 13,200 1,140 Climbing Orlando TRACON
01:15AM 28.0369 -81.1239 170° South 201 231 14,000 1,020 Climbing Miami Center
01:16AM 27.9881 -81.0892 148° Southeast 206 237 15,000 480 Climbing Miami Center
01:17AM 27.9372 -81.0425 141° Southeast 223 257 15,000  Level Miami Center
01:18AM 27.8803 -80.9911 141° Southeast 251 289 15,000  Level Miami Center
01:19AM 27.8253 -80.9397 140° Southeast 275 316 15,000  Level Miami Center
01:20AM 27.7603 -80.8742 138° Southeast 280 322 15,000  Level Miami Center
01:21AM 27.7075 -80.8253 141° Southeast 280 322 15,000  Level Miami Center
01:22AM 27.6442 -80.7739 144° Southeast 280 322 15,000  Level Miami Center
01:23AM 27.5683 -80.7244 150° Southeast 280 322 15,000  Level Miami Center
01:24AM 27.5025 -80.6778 148° Southeast 280 322 15,000  Level Miami Center
01:25AM 27.4350 -80.6336 150° Southeast 287 330 15,000  Level Miami Center
01:26AM 27.3650 -80.5892 151° Southeast 287 330 15,000  Level Miami Center
01:27AM 27.3011 -80.5614 159° South 280 322 15,000  Level Miami Center
01:28AM 27.2183 -80.5261 159° South 280 322 15,000  Level Miami Center
01:29AM 27.1442 -80.4956 160° South 286 329 15,000  Level Miami Center
01:30AM 27.0697 -80.4631 159° South 286 329 15,000 -120 Level Miami Center
01:31AM 27.0036 -80.4353 159° South 281 323 14,800 -660 Descending Miami Center
01:32AM 26.9292 -80.4003 157° South 288 331 13,700 -1,380 Descending Miami Center
01:33AM 26.8403 -80.3653 161° South 306 352 12,100 -1,320 Descending Miami Center
01:34AM 26.7639 -80.3303 158° South 318 366 11,100 -1,440 Descending Miami Center
01:35AM 26.6922 -80.2700 143° Southeast 304 350 9,200 -1,920 Descending Miami Center
01:36AM 26.6553 -80.2364 141° Southeast 299 344 8,200 -1,800 Descending Miami Center
01:37AM 26.5714 -80.1644 143° Southeast 282 325 6,000 -960 Descending Miami Center
01:38AM 26.5097 -80.1256 151° Southeast 256 295 6,000  Level Miami Center
01:39AM 26.4392 -80.1050 165° South 262 302 6,000  Level Miami Center
01:40AM 26.3664 -80.0892 169° South 261 300 6,100 -240 Climbing Miami Center
01:41AM 26.2956 -80.0825 175° South 262 302 5,600 -900 Descending Miami Center
01:42AM 26.2247 -80.0736 174° South 256 295 4,400 -1,140 Descending Miami Center
01:43AM 26.1514 -80.0739 180° South 249 287 3,200 -660 Descending Miami Center
01:44AM 26.0883 -80.0931 195° South 236 272 3,100 -60 Descending Miami Center
01:45AM 26.0294 -80.1192 202° Southwest 237 273 3,100 -300 Level Miami Center
01:46AM 25.9967 -80.1831 240° Southwest 236 272 2,600 -540 Descending Miami Center
01:47AM 25.9722 -80.2425 245° Southwest 202 232 2,100 -540 Descending Miami Center
01:48AM 25.9606 -80.3000 257° West 189 217 1,500 -600 Descending Miami Center
01:49AM 25.9347 -80.3292 225° Southwest 125 144 900 -540 Descending Miami Center
01:51AM 25.9074 -80.2782 121° Southeast  Level Estimated
01:58AM 25.9074 -80.2782 211° Southwest  Level Estimated
01:59AM 25.9074 -80.2782 211° Southwest  Level Estimated